createdAt,value
2019-05-17T00:01:32.565Z,8.80
2019-05-17T00:05:37.693Z,8.78
2019-05-17T00:09:42.610Z,8.78
2019-05-17T00:13:48.066Z,8.78
2019-05-17T00:17:52.949Z,8.77
2019-05-17T00:21:57.835Z,8.74
2019-05-17T00:26:02.719Z,8.70
2019-05-17T00:30:09.645Z,8.70
2019-05-17T00:34:16.603Z,8.63
2019-05-17T00:38:21.110Z,8.58
2019-05-17T00:42:26.471Z,8.53
2019-05-17T00:46:31.460Z,8.50
2019-05-17T00:50:37.890Z,8.49
2019-05-17T00:54:43.023Z,8.54
2019-05-17T00:58:47.909Z,8.58
2019-05-17T01:02:52.786Z,8.66
2019-05-17T01:06:57.675Z,8.65
2019-05-17T01:11:02.637Z,8.66
2019-05-17T01:15:08.754Z,8.66
2019-05-17T01:19:13.631Z,8.62
2019-05-17T01:23:18.513Z,8.63
2019-05-17T01:27:23.404Z,8.73
2019-05-17T01:31:28.291Z,8.76
2019-05-17T01:35:33.181Z,8.85
2019-05-17T01:39:38.052Z,8.86
2019-05-17T01:43:42.939Z,8.84
2019-05-17T01:47:47.830Z,8.86
2019-05-17T01:51:52.717Z,8.84
2019-05-17T01:55:57.610Z,8.85
2019-05-17T02:00:03.253Z,8.86
2019-05-17T02:04:09.210Z,8.85
2019-05-17T02:08:14.097Z,8.85
2019-05-17T02:12:19.957Z,8.84
2019-05-17T02:16:26.727Z,8.78
2019-05-17T02:20:31.417Z,8.76
2019-05-17T02:24:37.096Z,8.67
2019-05-17T02:28:42.141Z,8.64
2019-05-17T02:32:48.477Z,8.60
2019-05-17T02:36:53.593Z,8.61
2019-05-17T02:40:58.588Z,8.61
2019-05-17T02:45:04.012Z,8.58
2019-05-17T02:49:08.899Z,8.54
2019-05-17T02:53:13.861Z,8.52
2019-05-17T02:57:18.743Z,8.54
2019-05-17T03:01:23.624Z,8.52
2019-05-17T03:05:28.506Z,8.51
2019-05-17T03:09:33.852Z,8.50
2019-05-17T03:13:38.977Z,8.49
2019-05-17T03:17:44.075Z,8.51
2019-05-17T03:21:49.007Z,8.50
2019-05-17T03:25:53.888Z,8.53
2019-05-17T03:29:58.782Z,8.54
2019-05-17T03:34:06.389Z,8.50
2019-05-17T03:38:13.864Z,8.55
2019-05-17T03:42:17.477Z,8.55
2019-05-17T03:46:23.208Z,8.54
2019-05-17T03:50:28.396Z,8.58
2019-05-17T03:54:33.286Z,8.63
2019-05-17T03:58:38.174Z,8.68
2019-05-17T04:02:44.322Z,8.70
2019-05-17T04:06:52.641Z,8.78
2019-05-17T04:10:56.476Z,8.79
2019-05-17T04:15:03.315Z,8.78
2019-05-17T04:19:07.942Z,8.75
2019-05-17T04:23:13.045Z,8.77
2019-05-17T04:27:18.080Z,8.73
2019-05-17T04:31:23.050Z,8.77
2019-05-17T04:35:32.427Z,8.73
2019-05-17T04:39:35.568Z,8.70
2019-05-17T04:43:42.471Z,8.79
2019-05-17T04:47:47.202Z,8.81
2019-05-17T04:51:52.634Z,8.81
2019-05-17T04:55:57.623Z,8.85
2019-05-17T05:00:04.151Z,8.87
2019-05-17T05:04:09.421Z,8.89
2019-05-17T05:08:14.370Z,8.86
2019-05-17T05:12:19.257Z,8.89
2019-05-17T05:16:24.170Z,9.00
2019-05-17T05:20:29.034Z,9.05
2019-05-17T05:24:33.983Z,9.11
2019-05-17T05:28:38.865Z,9.23
2019-05-17T05:32:43.754Z,9.25
2019-05-17T05:36:48.639Z,9.20
2019-05-17T05:40:53.527Z,9.09
2019-05-17T05:44:58.414Z,9.17
2019-05-17T05:49:03.289Z,9.16
2019-05-17T05:53:08.177Z,9.19
2019-05-17T05:57:13.072Z,9.25
2019-05-17T06:01:17.964Z,9.35
2019-05-17T06:05:22.844Z,9.45
2019-05-17T06:09:27.718Z,9.51
2019-05-17T06:13:32.867Z,9.52
2019-05-17T06:17:37.742Z,9.62
2019-05-17T06:21:42.874Z,9.55
2019-05-17T06:25:47.686Z,9.55
2019-05-17T06:29:52.565Z,9.53
2019-05-17T06:33:58.524Z,9.56
2019-05-17T06:38:03.415Z,9.64
2019-05-17T06:42:08.302Z,9.72
2019-05-17T06:46:13.200Z,9.85
2019-05-17T06:50:18.225Z,10.02
2019-05-17T06:54:23.121Z,10.02
2019-05-17T06:58:28.017Z,10.10
2019-05-17T07:02:35.964Z,10.23
2019-05-17T07:06:40.458Z,10.34
2019-05-17T07:10:45.538Z,10.39
2019-05-17T07:14:50.799Z,10.43
2019-05-17T07:18:56.879Z,10.35
2019-05-17T07:23:01.787Z,10.34
2019-05-17T07:27:06.672Z,10.32
2019-05-17T07:31:11.572Z,10.36
2019-05-17T07:35:16.908Z,10.43
2019-05-17T07:39:21.815Z,10.49
2019-05-17T07:43:26.741Z,10.61
2019-05-17T07:47:31.689Z,10.57
2019-05-17T07:51:36.567Z,10.60
2019-05-17T07:55:41.464Z,10.70
2019-05-17T07:59:46.360Z,10.88
2019-05-17T08:03:51.258Z,11.02
2019-05-17T08:07:57.121Z,11.05
2019-05-17T08:12:02.011Z,11.05
2019-05-17T08:16:06.910Z,10.87
2019-05-17T08:20:12.078Z,10.75
2019-05-17T08:24:16.976Z,10.76
2019-05-17T08:28:21.871Z,10.85
2019-05-17T08:32:26.771Z,10.97
2019-05-17T08:36:31.663Z,11.12
2019-05-17T08:40:36.572Z,11.17
2019-05-17T08:44:41.470Z,11.43
2019-05-17T08:48:46.369Z,11.69
2019-05-17T08:52:51.255Z,11.88
2019-05-17T08:56:56.164Z,12.13
2019-05-17T09:01:01.061Z,12.20
2019-05-17T09:05:09.676Z,12.29
2019-05-17T09:09:13.785Z,12.55
2019-05-17T09:13:19.567Z,12.91
2019-05-17T09:17:24.659Z,13.00
2019-05-17T09:21:31.413Z,13.14
2019-05-17T09:25:36.154Z,13.02
2019-05-17T09:29:41.053Z,13.23
2019-05-17T09:33:45.945Z,13.74
2019-05-17T09:37:50.835Z,14.44
2019-05-17T09:41:55.735Z,14.97
2019-05-17T09:46:01.698Z,15.03
2019-05-17T09:50:09.924Z,15.09
2019-05-17T09:54:15.180Z,15.02
2019-05-17T09:58:21.604Z,15.02
2019-05-17T10:02:26.732Z,15.28
2019-05-17T10:06:31.628Z,15.79
2019-05-17T10:10:36.522Z,15.79
2019-05-17T10:14:41.487Z,15.98
2019-05-17T10:18:46.383Z,15.83
2019-05-17T10:22:51.273Z,15.35
2019-05-17T10:26:56.169Z,15.35
2019-05-17T10:31:02.323Z,15.90
2019-05-17T10:35:07.896Z,16.38
2019-05-17T10:39:12.799Z,16.59
2019-05-17T10:43:17.696Z,16.50
2019-05-17T10:47:22.604Z,16.60
2019-05-17T10:51:29.487Z,16.63
2019-05-17T10:55:34.153Z,16.84
2019-05-17T10:59:39.045Z,17.34
2019-05-17T11:03:43.941Z,17.62
2019-05-17T11:07:50.380Z,17.48
2019-05-17T11:11:55.614Z,17.56
2019-05-17T11:16:00.505Z,17.48
2019-05-17T11:20:08.159Z,16.99
2019-05-17T11:24:13.044Z,16.95
2019-05-17T11:28:17.932Z,16.61
2019-05-17T11:32:22.825Z,16.59
2019-05-17T11:36:27.718Z,16.49
2019-05-17T11:40:32.617Z,16.62
2019-05-17T11:44:37.521Z,16.33
2019-05-17T11:48:42.424Z,16.36
2019-05-17T11:52:47.318Z,16.40
2019-05-17T11:56:52.209Z,16.70
2019-05-17T12:00:57.102Z,16.58
2019-05-17T12:05:02.001Z,16.47
2019-05-17T12:09:07.539Z,16.59
2019-05-17T12:13:12.502Z,16.86
2019-05-17T12:17:17.397Z,17.05
2019-05-17T12:21:22.284Z,16.72
2019-05-17T12:25:27.250Z,16.39
2019-05-17T12:29:32.157Z,16.48
2019-05-17T12:33:37.049Z,16.67
2019-05-17T12:37:42.602Z,16.90
2019-05-17T12:41:47.570Z,16.80
2019-05-17T12:46:00.553Z,16.95
2019-05-17T12:49:59.805Z,17.00
2019-05-17T12:54:04.716Z,17.05
2019-05-17T12:58:09.599Z,17.18
2019-05-17T13:02:14.491Z,17.36
2019-05-17T13:06:19.394Z,17.57
2019-05-17T13:10:24.298Z,17.97
2019-05-17T13:14:29.197Z,17.91
2019-05-17T13:18:34.094Z,17.67
2019-05-17T13:22:38.974Z,17.39
2019-05-17T13:26:43.871Z,17.00
2019-05-17T13:30:48.766Z,16.78
2019-05-17T13:34:54.634Z,16.79
2019-05-17T13:38:59.530Z,16.72
2019-05-17T13:43:04.416Z,16.84
2019-05-17T13:47:09.312Z,16.99
2019-05-17T13:51:14.208Z,16.76
2019-05-17T13:55:19.108Z,16.79
2019-05-17T13:59:24.008Z,17.12
2019-05-17T14:03:28.928Z,17.44
2019-05-17T14:07:33.822Z,17.62
2019-05-17T14:11:38.724Z,17.59
2019-05-17T14:15:43.689Z,17.57
2019-05-17T14:19:48.593Z,17.34
2019-05-17T14:23:53.487Z,17.18
2019-05-17T14:27:58.420Z,17.42
2019-05-17T14:32:03.534Z,17.74
2019-05-17T14:36:08.601Z,18.27
2019-05-17T14:40:13.843Z,18.47
2019-05-17T14:44:18.728Z,18.22
2019-05-17T14:48:23.621Z,18.19
2019-05-17T14:52:28.529Z,18.25
2019-05-17T14:56:33.462Z,18.44
2019-05-17T15:00:38.365Z,18.49
2019-05-17T15:04:43.251Z,18.48
2019-05-17T15:08:49.219Z,18.67
2019-05-17T15:12:55.193Z,18.37
2019-05-17T15:17:00.090Z,18.17
2019-05-17T15:21:04.989Z,17.84
2019-05-17T15:25:10.112Z,17.65
2019-05-17T15:29:15.008Z,17.52
2019-05-17T15:33:19.905Z,17.59
2019-05-17T15:37:24.811Z,17.70
2019-05-17T15:41:29.716Z,17.63
2019-05-17T15:45:34.602Z,17.65
2019-05-17T15:49:39.499Z,17.76
2019-05-17T15:53:44.396Z,17.87
2019-05-17T15:57:49.297Z,17.67
2019-05-17T16:01:54.327Z,17.63
2019-05-17T16:06:00.262Z,17.59
2019-05-17T16:10:09.053Z,17.66
2019-05-17T16:14:13.936Z,17.72
2019-05-17T16:18:18.842Z,17.80
2019-05-17T16:22:23.738Z,17.68
2019-05-17T16:26:28.643Z,17.72
2019-05-17T16:30:33.540Z,17.75
2019-05-17T16:34:38.442Z,17.55
2019-05-17T16:38:43.339Z,17.55
2019-05-17T16:42:48.219Z,17.66
2019-05-17T16:46:53.166Z,17.70
2019-05-17T16:50:58.063Z,17.59
2019-05-17T16:55:05.775Z,17.34
2019-05-17T16:59:11.741Z,17.18
2019-05-17T17:03:16.646Z,17.08
2019-05-17T17:07:21.523Z,17.01
2019-05-17T17:11:26.489Z,17.13
2019-05-17T17:15:31.443Z,17.09
2019-05-17T17:19:36.280Z,17.06
2019-05-17T17:23:42.151Z,17.00
2019-05-17T17:27:47.104Z,17.03
2019-05-17T17:31:52.004Z,17.06
2019-05-17T17:35:56.899Z,17.03
2019-05-17T17:40:01.807Z,16.89
2019-05-17T17:44:06.706Z,16.78
2019-05-17T17:48:11.587Z,16.72
2019-05-17T17:52:16.478Z,16.65
2019-05-17T17:56:21.382Z,16.62
2019-05-17T18:00:26.283Z,16.60
2019-05-17T18:04:31.178Z,16.53
2019-05-17T18:08:36.068Z,16.44
2019-05-17T18:12:40.965Z,16.38
2019-05-17T18:16:45.861Z,16.31
2019-05-17T18:20:50.760Z,16.21
2019-05-17T18:24:55.653Z,16.08
2019-05-17T18:29:00.609Z,15.96
2019-05-17T18:33:06.217Z,15.87
2019-05-17T18:37:11.107Z,15.77
2019-05-17T18:41:16.019Z,15.64
2019-05-17T18:45:21.008Z,15.45
2019-05-17T18:49:25.957Z,15.30
2019-05-17T18:53:30.852Z,15.12
2019-05-17T18:57:35.749Z,14.93
2019-05-17T19:01:40.641Z,14.71
2019-05-17T19:05:45.572Z,14.64
2019-05-17T19:09:50.443Z,14.53
2019-05-17T19:13:55.360Z,14.39
2019-05-17T19:18:00.248Z,14.09
2019-05-17T19:22:05.145Z,13.88
2019-05-17T19:26:10.044Z,13.70
2019-05-17T19:30:16.271Z,13.61
2019-05-17T19:34:21.190Z,13.47
2019-05-17T19:38:26.081Z,13.22
2019-05-17T19:42:30.984Z,13.02
2019-05-17T19:46:35.889Z,13.01
2019-05-17T19:50:40.779Z,12.92
2019-05-17T19:54:45.669Z,12.81
2019-05-17T19:58:50.573Z,12.61
2019-05-17T20:02:55.476Z,12.51
2019-05-17T20:07:00.369Z,12.56
2019-05-17T20:11:05.270Z,12.66
2019-05-17T20:15:17.508Z,12.80
2019-05-17T20:19:17.109Z,12.95
2019-05-17T20:23:22.007Z,12.98
2019-05-17T20:27:26.915Z,12.98
2019-05-17T20:31:31.799Z,13.00
2019-05-17T20:35:36.699Z,13.03
2019-05-17T20:39:41.596Z,12.93
2019-05-17T20:43:46.489Z,12.86
2019-05-17T20:47:51.389Z,12.73
2019-05-17T20:51:56.281Z,12.71
2019-05-17T20:56:01.175Z,12.77
2019-05-17T21:00:09.979Z,12.81
2019-05-17T21:04:14.877Z,12.78
2019-05-17T21:08:19.770Z,12.74
2019-05-17T21:12:24.657Z,12.73
2019-05-17T21:16:29.558Z,12.64
2019-05-17T21:20:34.479Z,12.58
2019-05-17T21:24:39.374Z,12.63
2019-05-17T21:28:47.065Z,12.68
2019-05-17T21:32:50.849Z,12.73
2019-05-17T21:36:55.738Z,12.75
2019-05-17T21:41:00.636Z,12.77
2019-05-17T21:45:06.814Z,12.80
2019-05-17T21:49:11.669Z,12.78
2019-05-17T21:53:16.561Z,12.63
2019-05-17T21:57:21.456Z,12.49
2019-05-17T22:01:27.309Z,12.41
2019-05-17T22:05:32.189Z,12.33
2019-05-17T22:09:37.106Z,12.33
2019-05-17T22:13:41.972Z,12.33
2019-05-17T22:17:46.869Z,12.25
2019-05-17T22:21:51.769Z,12.19
2019-05-17T22:25:56.668Z,12.19
2019-05-17T22:30:01.574Z,12.17
2019-05-17T22:34:06.447Z,12.17
2019-05-17T22:38:11.345Z,12.19
2019-05-17T22:42:16.274Z,12.17
2019-05-17T22:46:35.127Z,12.14
2019-05-17T22:50:27.983Z,12.10
2019-05-17T22:54:32.871Z,11.99
2019-05-17T22:58:37.771Z,11.86
2019-05-17T23:02:42.664Z,11.64
2019-05-17T23:06:48.629Z,11.38
2019-05-17T23:10:53.524Z,11.18
2019-05-17T23:14:58.401Z,11.12
2019-05-17T23:19:09.800Z,11.01
2019-05-17T23:23:15.533Z,10.86
2019-05-17T23:27:20.540Z,10.83
2019-05-17T23:31:25.442Z,10.88
2019-05-17T23:35:30.321Z,10.95
2019-05-17T23:39:35.218Z,10.97
2019-05-17T23:43:40.117Z,10.97
2019-05-17T23:47:45.012Z,10.95
2019-05-17T23:51:49.908Z,10.94
2019-05-17T23:55:54.792Z,10.93
2019-05-17T23:59:59.688Z,10.90
